Time;durP1;ratioP1;P1;durP2;ratioP2;P2;SDS_P1;SDS_P2;PMS_P1;PMS_P2;Temp;Humidity;BMP_temperature;BMP_pressure;BME280_temperature;BME280_humidity;BME280_pressure;Samples;Min_cycle;Max_cycle;Signal;HPM_P1;HPM_P2
2022/11/23 00:01:15;;;;;;;;;;;27.30;76.00;;;;;;5059346;28;19942;-73
2022/11/23 00:03:42;;;;;;;;;;;27.50;76.50;;;;;;5060572;28;19924;-72
2022/11/23 00:06:09;;;;;;;;;;;27.60;74.10;;;;;;5061022;28;19920;-74
2022/11/23 00:08:36;;;;;;;;;;;27.60;73.00;;;;;;5059657;28;19912;-71
2022/11/23 00:11:02;;;;;;;;;;;27.50;73.10;;;;;;5062045;28;19920;-72
2022/11/23 00:13:29;;;;;;;;;;;27.30;76.30;;;;;;5061708;28;19920;-71
2022/11/23 00:15:56;;;;;;;;;;;27.50;76.20;;;;;;5060837;28;19913;-72
2022/11/23 00:18:22;;;;;;;;;;;27.80;74.50;;;;;;5061464;28;19966;-72
2022/11/23 00:20:49;;;;;;;;;;;28.20;74.90;;;;;;5055838;28;20007;-71
2022/11/23 00:23:16;;;;;;;;;;;28.30;74.60;;;;;;5059167;28;19913;-73
2022/11/23 00:25:45;;;;;;;;;;;28.50;74.20;;;;;;5065956;28;19972;-72
2022/11/23 00:28:12;;;;;;;;;;;28.60;73.90;;;;;;5070481;28;19935;-71
2022/11/23 00:30:39;;;;;;;;;;;28.80;74.10;;;;;;5059847;28;20263;-72
2022/11/23 00:33:05;;;;;;;;;;;28.80;72.60;;;;;;5062515;28;19923;-71
2022/11/23 00:35:32;;;;;;;;;;;28.90;74.60;;;;;;5061608;28;19920;-72
2022/11/23 00:37:59;;;;;;;;;;;29.10;73.80;;;;;;5062619;28;19947;-72
2022/11/23 00:40:25;;;;;;;;;;;29.30;73.50;;;;;;5064351;28;19916;-72
2022/11/23 00:42:52;;;;;;;;;;;29.40;73.80;;;;;;5058650;28;19920;-72
2022/11/23 00:45:19;;;;;;;;;;;29.50;73.50;;;;;;5055570;28;19921;-72
2022/11/23 00:47:45;;;;;;;;;;;29.30;70.90;;;;;;5061314;28;19912;-71
2022/11/23 00:50:12;;;;;;;;;;;29.30;72.20;;;;;;5059894;28;19970;-72
2022/11/23 00:52:39;;;;;;;;;;;29.40;73.40;;;;;;5062707;28;20333;-75
2022/11/23 00:55:05;;;;;;;;;;;29.60;73.90;;;;;;5062124;28;20019;-74
2022/11/23 00:57:33;;;;;;;;;;;29.70;73.00;;;;;;5057346;28;19921;-73
2022/11/23 01:00:00;;;;;;;;;;;29.80;72.20;;;;;;5059524;28;19920;-73
2022/11/23 01:02:26;;;;;;;;;;;30.00;74.20;;;;;;5061284;28;19920;-75
2022/11/23 01:04:53;;;;;;;;;;;30.30;74.20;;;;;;5060536;28;19927;-72
2022/11/23 01:07:20;;;;;;;;;;;30.50;72.40;;;;;;5057795;28;20004;-74
2022/11/23 01:09:46;;;;;;;;;;;30.50;72.70;;;;;;5057809;28;19928;-73
2022/11/23 01:12:13;;;;;;;;;;;30.60;74.30;;;;;;5063274;28;19916;-74
2022/11/23 01:14:40;;;;;;;;;;;30.90;73.70;;;;;;5059793;28;20007;-74
2022/11/23 01:17:06;;;;;;;;;;;30.90;72.50;;;;;;5060092;28;19912;-74
2022/11/23 01:19:33;;;;;;;;;;;31.20;72.30;;;;;;5060892;28;19916;-74
2022/11/23 01:22:00;;;;;;;;;;;31.30;69.90;;;;;;5059738;28;19920;-74
2022/11/23 01:24:26;;;;;;;;;;;31.40;72.60;;;;;;5062211;28;19912;-73
2022/11/23 01:26:54;;;;;;;;;;;31.20;69.80;;;;;;5063268;28;19912;-73
2022/11/23 01:29:23;;;;;;;;;;;31.10;69.30;;;;;;5062727;28;20274;-72
2022/11/23 01:31:50;;;;;;;;;;;30.90;69.30;;;;;;5062931;28;22023;-74
2022/11/23 01:34:17;;;;;;;;;;;30.60;71.20;;;;;;5065714;28;20011;-75
2022/11/23 01:36:44;;;;;;;;;;;30.50;70.80;;;;;;5063092;28;20461;-72
2022/11/23 01:39:11;;;;;;;;;;;30.70;71.80;;;;;;5065766;28;20032;-76
2022/11/23 01:41:39;;;;;;;;;;;31.00;71.10;;;;;;5062763;28;20747;-75
2022/11/23 01:44:26;;;;;;;;;;;31.00;68.80;;;;;;5063055;28;19913;-72
2022/11/23 01:46:53;;;;;;;;;;;31.10;70.00;;;;;;5062029;28;19978;-74
2022/11/23 01:49:20;;;;;;;;;;;31.40;70.10;;;;;;5070312;28;19998;-75
2022/11/23 01:51:49;;;;;;;;;;;31.50;71.10;;;;;;5067527;28;19916;-74
2022/11/23 01:54:27;;;;;;;;;;;31.70;70.60;;;;;;5070310;28;19986;-75
2022/11/23 01:56:56;;;;;;;;;;;31.50;69.30;;;;;;5067098;28;19913;-76
2022/11/23 01:59:24;;;;;;;;;;;30.70;67.80;;;;;;5068834;28;19920;-76
2022/11/23 02:01:51;;;;;;;;;;;30.40;71.50;;;;;;5068764;28;20274;-75
2022/11/23 02:04:38;;;;;;;;;;;30.50;70.00;;;;;;5063052;28;19919;-73
2022/11/23 02:07:05;;;;;;;;;;;30.70;71.50;;;;;;5062353;28;19916;-72
2022/11/23 02:09:32;;;;;;;;;;;31.20;70.40;;;;;;5063269;28;19936;-74
2022/11/23 02:12:00;;;;;;;;;;;31.30;69.40;;;;;;5065998;28;19916;-73
2022/11/23 02:14:27;;;;;;;;;;;31.80;71.00;;;;;;5066902;28;20390;-72
2022/11/23 02:16:54;;;;;;;;;;;32.20;71.80;;;;;;5066476;28;19919;-76
2022/11/23 02:19:29;;;;;;;;;;;32.30;70.30;;;;;;5066031;28;19912;-73
2022/11/23 02:21:56;;;;;;;;;;;32.50;68.30;;;;;;5064669;28;19927;-75
2022/11/23 02:24:25;;;;;;;;;;;32.70;70.70;;;;;;5067429;28;20062;-74
2022/11/23 02:26:52;;;;;;;;;;;32.60;66.80;;;;;;5063851;28;20243;-74
2022/11/23 02:29:23;;;;;;;;;;;31.60;65.40;;;;;;5065297;28;19912;-74
2022/11/23 02:31:50;;;;;;;;;;;31.00;69.70;;;;;;5066447;28;19938;-71
2022/11/23 02:34:17;;;;;;;;;;;30.80;68.20;;;;;;5068684;28;19975;-74
2022/11/23 02:36:48;;;;;;;;;;;31.00;68.20;;;;;;5069616;28;20002;-73
2022/11/23 02:39:21;;;;;;;;;;;31.10;66.60;;;;;;5075192;28;20344;-73
2022/11/23 02:41:49;;;;;;;;;;;31.20;70.00;;;;;;5075629;28;19913;-74
2022/11/23 02:47:19;;;;;;;;;;;31.80;69.70;;;;;;5064495;28;19927;-73
2022/11/23 02:49:46;;;;;;;;;;;32.30;69.90;;;;;;5063543;28;19939;-73
2022/11/23 02:52:13;;;;;;;;;;;32.50;69.70;;;;;;5073265;28;19938;-73
2022/11/23 02:54:40;;;;;;;;;;;32.60;69.40;;;;;;5070565;28;19973;-74
2022/11/23 02:57:08;;;;;;;;;;;32.80;70.50;;;;;;5075044;28;19912;-72
2022/11/23 02:59:35;;;;;;;;;;;32.90;70.60;;;;;;5067693;28;19912;-75
2022/11/23 03:02:03;;;;;;;;;;;32.60;64.70;;;;;;5074299;28;19912;-73
2022/11/23 03:04:30;;;;;;;;;;;32.50;68.40;;;;;;5066293;28;19924;-73
2022/11/23 03:06:57;;;;;;;;;;;32.50;67.90;;;;;;5074006;28;20358;-76
2022/11/23 03:09:25;;;;;;;;;;;32.80;68.00;;;;;;5068518;28;19921;-72
2022/11/23 03:11:52;;;;;;;;;;;32.90;66.80;;;;;;5064547;28;19917;-73
2022/11/23 03:14:18;;;;;;;;;;;33.20;67.10;;;;;;5064837;28;19912;-73
2022/11/23 03:16:45;;;;;;;;;;;33.30;68.20;;;;;;5063243;28;20012;-73
2022/11/23 03:19:12;;;;;;;;;;;33.30;68.00;;;;;;5069560;28;20073;-74
2022/11/23 03:21:38;;;;;;;;;;;32.80;66.80;;;;;;5069817;28;19912;-73
2022/11/23 03:24:06;;;;;;;;;;;32.30;64.80;;;;;;5071830;28;19916;-75
2022/11/23 03:26:32;;;;;;;;;;;32.20;65.70;;;;;;5045707;28;20007;-75
2022/11/23 03:28:59;;;;;;;;;;;32.10;67.40;;;;;;5070938;28;19925;-74
2022/11/23 03:31:26;;;;;;;;;;;31.80;66.80;;;;;;5053605;28;19930;-73
2022/11/23 03:33:53;;;;;;;;;;;31.80;66.20;;;;;;5065912;28;20023;-73
2022/11/23 03:36:19;;;;;;;;;;;31.70;66.30;;;;;;5063193;28;20341;-75
2022/11/23 03:38:46;;;;;;;;;;;31.40;66.50;;;;;;5063697;28;19927;-75
2022/11/23 03:41:13;;;;;;;;;;;30.70;66.60;;;;;;5061898;28;19966;-73
2022/11/23 03:43:40;;;;;;;;;;;30.70;67.60;;;;;;5064788;28;19916;-74
2022/11/23 03:46:06;;;;;;;;;;;30.70;68.80;;;;;;5064388;28;20386;-74
2022/11/23 03:48:33;;;;;;;;;;;30.70;69.00;;;;;;5064163;28;19913;-73
2022/11/23 03:51:03;;;;;;;;;;;31.10;66.70;;;;;;5061763;28;20015;-73
2022/11/23 03:53:30;;;;;;;;;;;31.60;68.20;;;;;;5061755;28;20300;-74
2022/11/23 03:55:57;;;;;;;;;;;32.10;65.50;;;;;;5063152;28;19991;-74
2022/11/23 03:58:24;;;;;;;;;;;32.50;66.50;;;;;;5062623;28;19916;-72
2022/11/23 04:00:52;;;;;;;;;;;32.80;67.90;;;;;;5066487;28;19913;-74
2022/11/23 04:03:19;;;;;;;;;;;33.20;66.80;;;;;;5062572;28;19916;-73
2022/11/23 04:05:48;;;;;;;;;;;33.30;65.20;;;;;;5063495;28;19927;-74
2022/11/23 04:08:18;;;;;;;;;;;32.90;63.70;;;;;;5062094;28;19963;-77
2022/11/23 04:10:45;;;;;;;;;;;32.30;64.40;;;;;;5060411;28;20362;-75
2022/11/23 04:13:12;;;;;;;;;;;31.90;63.40;;;;;;5064268;28;19913;-77
2022/11/23 04:15:43;;;;;;;;;;;31.90;63.80;;;;;;5059729;28;20515;-77
2022/11/23 04:18:10;;;;;;;;;;;32.10;64.00;;;;;;5062769;28;19935;-77
2022/11/23 04:20:37;;;;;;;;;;;32.20;63.40;;;;;;5063347;28;19934;-77
2022/11/23 04:23:04;;;;;;;;;;;31.70;63.30;;;;;;5064808;28;19913;-78
2022/11/23 04:25:30;;;;;;;;;;;31.20;63.40;;;;;;5066537;28;20363;-79
2022/11/23 04:27:57;;;;;;;;;;;30.90;65.00;;;;;;5066344;28;20355;-77
2022/11/23 04:30:24;;;;;;;;;;;30.90;65.60;;;;;;5063671;28;20012;-76
2022/11/23 04:32:51;;;;;;;;;;;31.20;66.10;;;;;;5063953;28;19913;-78
2022/11/23 04:35:18;;;;;;;;;;;31.40;65.90;;;;;;5065812;28;19916;-73
2022/11/23 04:37:45;;;;;;;;;;;31.70;65.50;;;;;;5063051;28;19927;-75
2022/11/23 04:40:12;;;;;;;;;;;32.10;66.30;;;;;;5063616;28;20007;-75
2022/11/23 04:42:38;;;;;;;;;;;32.30;64.00;;;;;;5059097;28;19916;-74
2022/11/23 04:45:06;;;;;;;;;;;32.40;63.70;;;;;;5064346;28;20423;-73
2022/11/23 04:47:32;;;;;;;;;;;32.60;64.80;;;;;;5062639;28;19921;-73
2022/11/23 04:49:59;;;;;;;;;;;32.70;64.30;;;;;;5063243;28;19928;-75
2022/11/23 04:52:26;;;;;;;;;;;32.60;62.80;;;;;;5063676;28;20428;-73
2022/11/23 04:54:52;;;;;;;;;;;32.50;63.80;;;;;;5063606;28;19912;-72
2022/11/23 04:57:19;;;;;;;;;;;32.40;63.80;;;;;;5069441;28;19936;-74
2022/11/23 04:59:46;;;;;;;;;;;32.40;63.40;;;;;;5072751;28;19924;-75
2022/11/23 05:02:13;;;;;;;;;;;32.20;63.20;;;;;;5052364;28;20345;-75
2022/11/23 05:04:39;;;;;;;;;;;31.80;64.10;;;;;;5076657;28;19931;-73
2022/11/23 05:07:06;;;;;;;;;;;31.70;64.80;;;;;;5067156;28;20378;-75
2022/11/23 05:09:33;;;;;;;;;;;31.80;65.70;;;;;;5064433;28;19931;-74
2022/11/23 05:11:59;;;;;;;;;;;32.00;65.80;;;;;;5062065;28;19939;-76
2022/11/23 05:14:26;;;;;;;;;;;32.00;63.20;;;;;;5064020;28;19961;-74
2022/11/23 05:16:53;;;;;;;;;;;31.80;62.50;;;;;;5066353;28;20310;-73
2022/11/23 05:19:20;;;;;;;;;;;31.60;63.30;;;;;;5062965;28;19920;-74
2022/11/23 05:21:46;;;;;;;;;;;31.60;64.50;;;;;;5063372;28;19979;-75
2022/11/23 05:24:13;;;;;;;;;;;31.60;64.60;;;;;;5061807;28;20007;-73
2022/11/23 05:26:40;;;;;;;;;;;31.50;64.20;;;;;;5043700;28;19920;-74
2022/11/23 05:29:07;;;;;;;;;;;31.30;63.80;;;;;;5060312;28;19913;-74
2022/11/23 05:31:33;;;;;;;;;;;31.20;64.50;;;;;;5065288;28;19924;-74
2022/11/23 05:34:00;;;;;;;;;;;31.10;64.10;;;;;;5062563;28;20427;-76
2022/11/23 05:36:27;;;;;;;;;;;30.90;62.90;;;;;;5068846;28;19919;-74
2022/11/23 05:38:54;;;;;;;;;;;30.80;64.00;;;;;;5059871;28;19924;-73
2022/11/23 05:41:22;;;;;;;;;;;30.60;64.50;;;;;;5061704;28;19912;-74
2022/11/23 05:43:49;;;;;;;;;;;30.60;65.10;;;;;;5064599;28;19935;-73
2022/11/23 05:46:19;;;;;;;;;;;30.50;65.40;;;;;;5067961;28;20325;-72
2022/11/23 05:48:46;;;;;;;;;;;30.50;65.60;;;;;;5065016;28;19912;-76
2022/11/23 05:51:12;;;;;;;;;;;30.50;65.00;;;;;;5067757;28;19940;-75
2022/11/23 05:53:39;;;;;;;;;;;30.40;65.50;;;;;;5067869;28;19916;-75
2022/11/23 05:56:06;;;;;;;;;;;30.40;65.50;;;;;;5076926;28;19913;-76
2022/11/23 05:58:33;;;;;;;;;;;30.40;64.40;;;;;;5067184;28;19920;-76
2022/11/23 06:00:59;;;;;;;;;;;30.30;65.80;;;;;;5068672;28;19921;-75
2022/11/23 06:03:26;;;;;;;;;;;30.20;65.60;;;;;;5067002;28;19920;-73
2022/11/23 06:05:53;;;;;;;;;;;30.10;64.80;;;;;;5072630;28;19912;-73
2022/11/23 06:08:20;;;;;;;;;;;30.10;64.70;;;;;;5068199;28;20271;-73
2022/11/23 06:10:47;;;;;;;;;;;30.00;66.20;;;;;;5067183;28;19920;-72
2022/11/23 06:13:13;;;;;;;;;;;30.00;64.00;;;;;;5068772;28;19955;-73
2022/11/23 06:15:40;;;;;;;;;;;29.90;64.30;;;;;;5065623;28;20014;-74
2022/11/23 06:18:08;;;;;;;;;;;29.80;64.30;;;;;;5070530;28;19916;-74
2022/11/23 06:20:35;;;;;;;;;;;29.70;65.00;;;;;;5065179;28;19920;-75
2022/11/23 06:23:01;;;;;;;;;;;29.60;65.50;;;;;;5068185;28;19965;-76
2022/11/23 06:25:28;;;;;;;;;;;29.60;65.10;;;;;;5066311;28;19920;-75
2022/11/23 06:27:56;;;;;;;;;;;29.50;65.40;;;;;;5066857;28;19969;-73
2022/11/23 06:30:23;;;;;;;;;;;29.30;65.20;;;;;;5066846;28;19928;-76
2022/11/23 06:32:50;;;;;;;;;;;29.20;65.30;;;;;;5065804;28;19932;-76
2022/11/23 06:35:17;;;;;;;;;;;29.10;65.80;;;;;;5065783;28;20063;-75
2022/11/23 06:37:43;;;;;;;;;;;29.10;66.00;;;;;;5067976;28;19976;-76
2022/11/23 06:40:11;;;;;;;;;;;29.00;65.50;;;;;;5067942;28;19916;-76
2022/11/23 06:42:38;;;;;;;;;;;28.90;64.30;;;;;;5064023;28;19916;-75
2022/11/23 06:45:05;;;;;;;;;;;28.80;64.10;;;;;;5066681;28;19959;-76
2022/11/23 06:47:32;;;;;;;;;;;28.60;64.10;;;;;;5067270;28;20089;-76
2022/11/23 06:49:58;;;;;;;;;;;28.50;65.10;;;;;;5066058;28;19920;-74
2022/11/23 06:52:25;;;;;;;;;;;28.30;65.90;;;;;;5067606;28;19986;-75
2022/11/23 06:54:52;;;;;;;;;;;28.20;65.20;;;;;;5066222;28;19916;-75
2022/11/23 06:57:19;;;;;;;;;;;28.10;65.80;;;;;;5068217;28;20363;-77
2022/11/23 06:59:45;;;;;;;;;;;28.00;66.10;;;;;;5074068;28;19916;-76
2022/11/23 07:02:13;;;;;;;;;;;28.00;66.50;;;;;;5063295;28;20396;-74
2022/11/23 07:04:40;;;;;;;;;;;27.90;66.50;;;;;;5064986;28;19952;-80
2022/11/23 07:07:09;;;;;;;;;;;27.90;66.60;;;;;;5069688;28;19912;-75
2022/11/23 07:09:36;;;;;;;;;;;27.90;66.10;;;;;;5064749;28;20016;-73
2022/11/23 07:12:03;;;;;;;;;;;27.80;66.00;;;;;;5064417;28;19962;-75
2022/11/23 07:14:30;;;;;;;;;;;27.70;66.10;;;;;;5063158;28;19970;-75
2022/11/23 07:16:57;;;;;;;;;;;27.70;66.20;;;;;;5069816;28;19916;-75
2022/11/23 07:19:23;;;;;;;;;;;27.60;66.10;;;;;;5072407;28;20283;-75
2022/11/23 07:21:50;;;;;;;;;;;27.60;66.90;;;;;;5071188;28;19919;-74
2022/11/23 07:24:17;;;;;;;;;;;27.50;67.10;;;;;;5070286;28;19913;-75
2022/11/23 07:26:43;;;;;;;;;;;27.40;67.20;;;;;;5072203;28;19923;-75
2022/11/23 07:29:10;;;;;;;;;;;27.40;67.80;;;;;;5073314;28;19915;-77
2022/11/23 07:31:37;;;;;;;;;;;27.30;67.90;;;;;;5071723;28;19965;-75
2022/11/23 07:34:04;;;;;;;;;;;27.20;67.60;;;;;;5066177;28;19951;-74
2022/11/23 07:36:31;;;;;;;;;;;27.00;67.80;;;;;;5071176;28;19937;-76
2022/11/23 07:38:57;;;;;;;;;;;27.00;68.30;;;;;;5067570;28;19920;-74
2022/11/23 07:41:26;;;;;;;;;;;27.00;67.80;;;;;;5072224;28;19912;-76
2022/11/23 07:43:53;;;;;;;;;;;26.80;68.20;;;;;;5065067;28;19931;-77
2022/11/23 07:46:19;;;;;;;;;;;26.70;68.30;;;;;;5072206;28;19917;-76
2022/11/23 07:48:46;;;;;;;;;;;26.70;68.40;;;;;;5061804;28;20417;-75
2022/11/23 07:51:13;;;;;;;;;;;26.60;68.60;;;;;;5072486;28;19928;-76
2022/11/23 07:53:40;;;;;;;;;;;26.50;68.70;;;;;;5067280;28;19962;-75
2022/11/23 07:56:07;;;;;;;;;;;26.40;69.00;;;;;;5072538;28;20015;-77
2022/11/23 07:58:33;;;;;;;;;;;26.30;69.40;;;;;;5072476;28;19916;-75
2022/11/23 08:01:00;;;;;;;;;;;26.20;69.00;;;;;;5070684;28;19951;-77
2022/11/23 08:03:27;;;;;;;;;;;26.00;69.50;;;;;;5063872;28;20300;-73
2022/11/23 08:05:54;;;;;;;;;;;25.90;69.70;;;;;;5068485;28;19959;-79
2022/11/23 08:08:20;;;;;;;;;;;25.80;69.90;;;;;;5060123;28;19951;-75
2022/11/23 08:10:47;;;;;;;;;;;25.60;69.20;;;;;;5068013;28;19920;-78
2022/11/23 08:13:14;;;;;;;;;;;25.50;69.40;;;;;;5065608;28;20326;-75
2022/11/23 08:15:40;;;;;;;;;;;25.40;69.70;;;;;;5070761;28;19912;-76
2022/11/23 08:18:08;;;;;;;;;;;25.30;70.10;;;;;;5071384;28;19919;-77
2022/11/23 08:20:35;;;;;;;;;;;25.20;70.50;;;;;;5070416;28;19916;-77
2022/11/23 08:23:02;;;;;;;;;;;25.00;70.70;;;;;;5067931;28;19954;-73
2022/11/23 08:25:29;;;;;;;;;;;24.90;70.70;;;;;;5070313;28;19919;-75
2022/11/23 08:28:00;;;;;;;;;;;24.80;71.10;;;;;;5072151;28;19912;-77
2022/11/23 08:30:27;;;;;;;;;;;24.70;71.10;;;;;;5066329;28;19962;-72
2022/11/23 08:32:54;;;;;;;;;;;24.60;71.40;;;;;;5071573;28;19913;-74
2022/11/23 08:35:21;;;;;;;;;;;24.50;72.10;;;;;;5068268;28;19908;-74
2022/11/23 08:37:47;;;;;;;;;;;24.40;72.10;;;;;;5068414;28;19916;-75
2022/11/23 08:40:14;;;;;;;;;;;24.30;72.40;;;;;;5066900;28;19982;-74
2022/11/23 08:42:41;;;;;;;;;;;24.20;72.80;;;;;;5063702;28;20288;-74
2022/11/23 08:45:08;;;;;;;;;;;24.10;73.10;;;;;;5068803;28;19912;-74
2022/11/23 08:47:35;;;;;;;;;;;24.00;73.70;;;;;;5066740;28;19999;-75
2022/11/23 08:50:02;;;;;;;;;;;23.80;73.70;;;;;;5070476;28;19974;-75
2022/11/23 08:52:28;;;;;;;;;;;23.70;74.10;;;;;;5070756;28;19917;-75
2022/11/23 08:54:55;;;;;;;;;;;23.60;74.60;;;;;;5068088;28;19916;-74
2022/11/23 08:57:22;;;;;;;;;;;23.60;74.80;;;;;;5061878;28;19931;-76
2022/11/23 08:59:48;;;;;;;;;;;23.50;75.00;;;;;;5069828;28;19908;-75
2022/11/23 09:02:15;;;;;;;;;;;23.40;75.60;;;;;;5070693;28;19916;-73
2022/11/23 09:04:43;;;;;;;;;;;23.30;76.00;;;;;;5067011;28;19909;-74
2022/11/23 09:07:10;;;;;;;;;;;23.20;76.30;;;;;;5066082;28;19938;-73
2022/11/23 09:09:37;;;;;;;;;;;23.10;76.60;;;;;;5070767;28;19921;-75
2022/11/23 09:12:03;;;;;;;;;;;22.90;76.90;;;;;;5069253;28;19921;-75
2022/11/23 09:14:30;;;;;;;;;;;22.90;77.10;;;;;;5068183;28;19916;-76
2022/11/23 09:16:57;;;;;;;;;;;22.80;77.40;;;;;;5071566;28;19917;-74
2022/11/23 09:19:24;;;;;;;;;;;22.80;77.20;;;;;;5066626;28;19982;-74
2022/11/23 09:21:50;;;;;;;;;;;22.70;77.30;;;;;;5070678;28;20001;-75
2022/11/23 09:24:17;;;;;;;;;;;22.70;77.30;;;;;;5068783;28;19916;-75
2022/11/23 09:26:44;;;;;;;;;;;22.60;77.30;;;;;;5069770;28;19958;-75
2022/11/23 09:29:11;;;;;;;;;;;22.60;77.50;;;;;;5069402;28;19912;-76
2022/11/23 09:31:37;;;;;;;;;;;22.50;77.90;;;;;;5069134;28;19991;-75
2022/11/23 09:34:04;;;;;;;;;;;22.40;78.30;;;;;;5067954;28;19927;-76
2022/11/23 09:36:31;;;;;;;;;;;22.40;78.50;;;;;;5068838;28;19951;-75
2022/11/23 09:38:58;;;;;;;;;;;22.30;78.60;;;;;;5070209;28;20279;-74
2022/11/23 09:41:33;;;;;;;;;;;22.20;78.70;;;;;;5069320;28;19951;-75
2022/11/23 09:44:18;;;;;;;;;;;22.20;78.80;;;;;;5071031;28;20050;-74
2022/11/23 09:46:48;;;;;;;;;;;22.10;79.00;;;;;;5066919;28;19916;-75
2022/11/23 09:49:16;;;;;;;;;;;22.00;79.20;;;;;;5055912;28;20359;-73
2022/11/23 09:51:44;;;;;;;;;;;22.00;79.20;;;;;;5064138;28;19998;-76
2022/11/23 09:54:28;;;;;;;;;;;21.90;79.50;;;;;;5053550;28;19962;-76
2022/11/23 09:56:56;;;;;;;;;;;21.90;79.70;;;;;;5066802;28;19916;-74
2022/11/23 09:59:40;;;;;;;;;;;21.80;79.70;;;;;;5063483;28;19916;-74
2022/11/23 10:02:17;;;;;;;;;;;21.80;79.80;;;;;;5069515;28;19912;-74
2022/11/23 10:04:44;;;;;;;;;;;21.80;80.00;;;;;;5069440;28;19913;-74
2022/11/23 10:07:16;;;;;;;;;;;21.70;80.10;;;;;;5063455;28;19916;-74
2022/11/23 10:10:01;;;;;;;;;;;21.70;80.00;;;;;;5067063;28;19925;-75
2022/11/23 10:12:46;;;;;;;;;;;21.60;80.10;;;;;;5068402;28;19967;-74
2022/11/23 10:15:22;;;;;;;;;;;21.50;80.40;;;;;;5066783;28;19913;-73
2022/11/23 10:17:49;;;;;;;;;;;21.50;80.30;;;;;;5067797;28;19912;-74
2022/11/23 10:20:36;;;;;;;;;;;21.50;80.40;;;;;;5068606;28;19912;-74
2022/11/23 10:23:07;;;;;;;;;;;21.40;80.80;;;;;;5066870;28;19926;-75
2022/11/23 10:25:45;;;;;;;;;;;21.30;81.00;;;;;;5061992;28;20278;-75
2022/11/23 10:28:14;;;;;;;;;;;21.30;81.30;;;;;;5057506;28;19966;-75
2022/11/23 10:30:41;;;;;;;;;;;21.20;81.30;;;;;;5058664;28;20330;-75
2022/11/23 10:33:08;;;;;;;;;;;21.20;82.00;;;;;;5066183;28;19913;-75
2022/11/23 10:35:37;;;;;;;;;;;21.10;82.50;;;;;;5048398;28;19920;-72
2022/11/23 10:38:14;;;;;;;;;;;21.00;82.40;;;;;;5072531;28;19919;-75
2022/11/23 10:40:57;;;;;;;;;;;20.80;82.40;;;;;;5068545;28;19995;-75
2022/11/23 10:43:25;;;;;;;;;;;20.80;82.70;;;;;;5074250;28;19912;-75
2022/11/23 10:46:11;;;;;;;;;;;20.70;82.90;;;;;;5066776;28;19976;-75
2022/11/23 10:48:38;;;;;;;;;;;20.70;82.80;;;;;;5071697;28;19951;-74
2022/11/23 10:51:34;;;;;;;;;;;20.70;82.60;;;;;;5066793;28;19924;-75
2022/11/23 10:54:05;;;;;;;;;;;20.70;82.70;;;;;;5057159;28;19921;-75
2022/11/23 10:56:33;;;;;;;;;;;20.70;82.70;;;;;;5068469;28;19909;-75
2022/11/23 10:59:00;;;;;;;;;;;20.60;83.10;;;;;;5069755;28;19917;-75
2022/11/23 11:01:28;;;;;;;;;;;20.50;83.10;;;;;;5072528;28;19919;-73
2022/11/23 11:03:56;;;;;;;;;;;20.50;83.30;;;;;;5053034;28;20375;-73
2022/11/23 11:06:23;;;;;;;;;;;20.50;83.80;;;;;;5073570;28;19931;-74
2022/11/23 11:08:51;;;;;;;;;;;20.40;83.90;;;;;;5073783;28;19973;-75
2022/11/23 11:11:24;;;;;;;;;;;20.40;84.10;;;;;;5070122;28;19920;-72
2022/11/23 11:13:51;;;;;;;;;;;20.30;84.00;;;;;;5062616;28;20019;-73
2022/11/23 11:16:20;;;;;;;;;;;20.30;84.20;;;;;;5068186;28;19912;-73
2022/11/23 11:18:47;;;;;;;;;;;20.30;84.20;;;;;;5069274;28;19916;-73
2022/11/23 11:21:26;;;;;;;;;;;20.20;84.80;;;;;;5068384;28;19913;-74
2022/11/23 11:23:55;;;;;;;;;;;20.20;85.00;;;;;;5062319;28;19923;-74
2022/11/23 11:26:23;;;;;;;;;;;20.10;85.50;;;;;;5072076;28;19965;-74
2022/11/23 11:28:53;;;;;;;;;;;20.00;85.40;;;;;;5064546;28;19912;-72
2022/11/23 11:31:44;;;;;;;;;;;20.00;85.60;;;;;;5072847;28;19920;-73
2022/11/23 11:34:17;;;;;;;;;;;20.00;85.60;;;;;;5072325;28;20318;-74
2022/11/23 11:36:50;;;;;;;;;;;19.90;85.40;;;;;;5072698;28;19913;-75
2022/11/23 11:39:23;;;;;;;;;;;19.90;85.70;;;;;;5071352;28;19913;-74
2022/11/23 11:41:50;;;;;;;;;;;19.90;86.00;;;;;;5070442;28;19920;-72
2022/11/23 11:44:25;;;;;;;;;;;19.90;85.80;;;;;;5071840;28;20007;-75
2022/11/23 11:46:58;;;;;;;;;;;19.80;86.60;;;;;;5066622;28;19913;-73
2022/11/23 11:49:30;;;;;;;;;;;19.70;86.80;;;;;;5068681;28;20375;-74
2022/11/23 11:52:21;;;;;;;;;;;19.60;87.00;;;;;;5070659;28;19921;-74
2022/11/23 11:54:56;;;;;;;;;;;19.50;87.40;;;;;;5067872;28;20290;-74
2022/11/23 11:57:49;;;;;;;;;;;19.40;87.90;;;;;;5066851;28;19947;-74
2022/11/23 12:00:18;;;;;;;;;;;19.30;87.90;;;;;;5062085;28;19920;-72
2022/11/23 12:02:51;;;;;;;;;;;19.30;88.60;;;;;;5071038;28;19942;-73
2022/11/23 12:05:25;;;;;;;;;;;19.20;88.60;;;;;;5065707;28;19913;-75
2022/11/23 12:08:00;;;;;;;;;;;19.10;88.80;;;;;;5068623;28;20033;-73
2022/11/23 12:10:33;;;;;;;;;;;19.00;89.10;;;;;;5068550;28;19990;-73
2022/11/23 12:13:00;;;;;;;;;;;18.90;90.10;;;;;;5070312;28;19912;-73
2022/11/23 12:15:43;;;;;;;;;;;18.80;90.00;;;;;;5068929;28;20386;-73
2022/11/23 12:18:19;;;;;;;;;;;18.80;89.90;;;;;;5066286;28;19917;-74
2022/11/23 12:20:49;;;;;;;;;;;18.70;90.10;;;;;;5062949;28;20007;-73
2022/11/23 12:23:18;;;;;;;;;;;18.60;90.40;;;;;;5057763;28;20363;-74
2022/11/23 12:26:05;;;;;;;;;;;18.50;90.70;;;;;;5069236;28;19921;-75
2022/11/23 12:28:43;;;;;;;;;;;18.50;90.90;;;;;;5018996;28;19919;-74
2022/11/23 12:31:09;;;;;;;;;;;18.50;91.00;;;;;;5066221;28;19925;-74
2022/11/23 12:34:02;;;;;;;;;;;18.50;91.10;;;;;;5068963;28;19970;-75
2022/11/23 12:36:47;;;;;;;;;;;18.40;91.50;;;;;;5053659;28;19918;-73
2022/11/23 12:39:16;;;;;;;;;;;18.40;91.30;;;;;;5072551;28;19950;-74
2022/11/23 12:42:01;;;;;;;;;;;18.30;91.40;;;;;;5065373;28;19913;-74
2022/11/23 12:44:30;;;;;;;;;;;18.30;91.70;;;;;;5071667;28;20252;-74
2022/11/23 12:46:57;;;;;;;;;;;18.30;91.40;;;;;;5067938;28;19916;-73
2022/11/23 12:49:24;;;;;;;;;;;18.30;91.40;;;;;;5064823;28;19926;-71
2022/11/23 12:51:53;;;;;;;;;;;18.20;91.50;;;;;;5059304;28;19967;-72
2022/11/23 12:54:38;;;;;;;;;;;18.20;91.70;;;;;;5061552;28;19955;-72
2022/11/23 12:57:08;;;;;;;;;;;18.10;91.90;;;;;;5061938;28;19984;-73
2022/11/23 12:59:40;;;;;;;;;;;18.10;92.00;;;;;;5059641;28;20418;-73
2022/11/23 13:02:11;;;;;;;;;;;18.00;92.20;;;;;;5065320;28;19912;-73
2022/11/23 13:04:59;;;;;;;;;;;18.00;92.30;;;;;;5056141;28;20498;-73
2022/11/23 13:07:42;;;;;;;;;;;18.00;92.40;;;;;;5067213;28;19916;-72
2022/11/23 13:10:18;;;;;;;;;;;17.90;92.30;;;;;;5067467;28;19931;-72
2022/11/23 13:13:00;;;;;;;;;;;18.00;92.50;;;;;;5065593;28;19917;-72
2022/11/23 13:15:37;;;;;;;;;;;18.00;92.60;;;;;;5069225;28;19920;-72
2022/11/23 13:18:19;;;;;;;;;;;17.90;92.50;;;;;;5069555;28;19916;-75
2022/11/23 13:20:55;;;;;;;;;;;17.90;92.70;;;;;;5064158;28;20259;-76
2022/11/23 13:23:22;;;;;;;;;;;17.90;93.20;;;;;;5063888;28;19916;-74
2022/11/23 13:26:07;;;;;;;;;;;17.90;93.40;;;;;;5064178;28;19916;-73
2022/11/23 13:28:33;;;;;;;;;;;17.90;93.40;;;;;;5064958;28;19919;-76
2022/11/23 13:31:17;;;;;;;;;;;17.90;93.70;;;;;;5059748;28;19924;-75
2022/11/23 13:33:48;;;;;;;;;;;17.90;93.90;;;;;;5068211;28;19931;-75
2022/11/23 13:36:30;;;;;;;;;;;17.90;94.00;;;;;;5066482;28;19960;-76
2022/11/23 13:38:58;;;;;;;;;;;17.80;94.10;;;;;;5067000;28;20358;-79
2022/11/23 13:41:33;;;;;;;;;;;17.70;94.10;;;;;;5059373;28;20603;-74
2022/11/23 13:44:19;;;;;;;;;;;17.60;94.10;;;;;;5067063;28;19917;-75
2022/11/23 13:47:04;;;;;;;;;;;17.60;94.50;;;;;;5062493;28;19916;-75
2022/11/23 13:49:36;;;;;;;;;;;17.50;94.40;;;;;;5065491;28;20309;-75
2022/11/23 13:52:06;;;;;;;;;;;17.50;94.40;;;;;;5055428;28;19928;-75
2022/11/23 13:54:32;;;;;;;;;;;17.50;94.60;;;;;;5069041;28;20333;-75
2022/11/23 13:57:04;;;;;;;;;;;17.50;94.60;;;;;;5068957;28;19921;-73
2022/11/23 13:59:33;;;;;;;;;;;17.50;95.00;;;;;;5067814;28;20448;-75
2022/11/23 14:02:01;;;;;;;;;;;17.50;95.10;;;;;;5067751;28;19986;-75
2022/11/23 14:04:38;;;;;;;;;;;17.50;95.00;;;;;;5073341;28;19919;-73
2022/11/23 14:07:05;;;;;;;;;;;17.50;95.30;;;;;;5078824;28;19924;-73
2022/11/23 14:09:50;;;;;;;;;;;17.50;95.70;;;;;;5079618;28;19924;-73
2022/11/23 14:12:26;;;;;;;;;;;17.40;95.60;;;;;;5071651;28;20302;-73
2022/11/23 14:15:18;;;;;;;;;;;17.40;95.80;;;;;;5075093;28;19920;-76
2022/11/23 14:18:10;;;;;;;;;;;17.40;96.00;;;;;;5061234;28;19920;-72
2022/11/23 14:20:46;;;;;;;;;;;17.30;96.30;;;;;;5066471;28;20134;-73
2022/11/23 14:23:19;;;;;;;;;;;17.30;96.70;;;;;;5070166;28;20327;-74
2022/11/23 14:25:47;;;;;;;;;;;17.20;97.10;;;;;;5072654;28;19938;-74
2022/11/23 14:28:23;;;;;;;;;;;17.20;97.20;;;;;;5067979;28;19912;-74
2022/11/23 14:30:58;;;;;;;;;;;17.20;97.40;;;;;;5070378;28;19920;-75
2022/11/23 14:33:24;;;;;;;;;;;17.20;97.50;;;;;;5065278;28;19919;-75